sensor_id;sensor_type;location;lat;lon;timestamp;temperature;humidity
26063;DHT22;13837;48.562;12.108;2022-11-20T00:01:26;3.80;99.90
26063;DHT22;13837;48.562;12.108;2022-11-20T00:03:53;3.80;99.90
26063;DHT22;13837;48.562;12.108;2022-11-20T00:06:20;3.80;99.90
26063;DHT22;13837;48.562;12.108;2022-11-20T00:08:46;3.80;99.90
26063;DHT22;13837;48.562;12.108;2022-11-20T00:11:16;3.80;99.90
26063;DHT22;13837;48.562;12.108;2022-11-20T00:13:44;3.80;99.90
26063;DHT22;13837;48.562;12.108;2022-11-20T00:16:11;3.80;99.90
26063;DHT22;13837;48.562;12.108;2022-11-20T00:18:37;3.80;99.90
26063;DHT22;13837;48.562;12.108;2022-11-20T00:21:05;3.80;99.90
26063;DHT22;13837;48.562;12.108;2022-11-20T00:23:32;3.80;99.90
26063;DHT22;13837;48.562;12.108;2022-11-20T00:26:08;3.80;99.90
26063;DHT22;13837;48.562;12.108;2022-11-20T00:28:34;3.70;99.90
26063;DHT22;13837;48.562;12.108;2022-11-20T00:31:11;3.80;99.90
26063;DHT22;13837;48.562;12.108;2022-11-20T00:33:37;3.80;99.90
26063;DHT22;13837;48.562;12.108;2022-11-20T00:36:06;3.80;99.90
26063;DHT22;13837;48.562;12.108;2022-11-20T00:38:32;3.80;99.90
26063;DHT22;13837;48.562;12.108;2022-11-20T00:41:00;3.80;99.90
26063;DHT22;13837;48.562;12.108;2022-11-20T00:43:26;3.80;99.90
26063;DHT22;13837;48.562;12.108;2022-11-20T00:46:04;3.90;99.90
26063;DHT22;13837;48.562;12.108;2022-11-20T00:48:30;3.80;99.90
26063;DHT22;13837;48.562;12.108;2022-11-20T00:50:56;3.80;99.90
26063;DHT22;13837;48.562;12.108;2022-11-20T00:53:23;3.80;99.90
26063;DHT22;13837;48.562;12.108;2022-11-20T00:56:04;3.80;99.90
26063;DHT22;13837;48.562;12.108;2022-11-20T00:58:32;3.80;99.90
26063;DHT22;13837;48.562;12.108;2022-11-20T01:01:04;3.80;99.90
26063;DHT22;13837;48.562;12.108;2022-11-20T01:03:31;3.80;99.90
26063;DHT22;13837;48.562;12.108;2022-11-20T01:06:02;3.80;99.90
26063;DHT22;13837;48.562;12.108;2022-11-20T01:08:36;3.80;99.90
26063;DHT22;13837;48.562;12.108;2022-11-20T01:11:05;3.80;99.90
26063;DHT22;13837;48.562;12.108;2022-11-20T01:13:31;3.80;99.90
26063;DHT22;13837;48.562;12.108;2022-11-20T01:16:07;3.70;99.90
26063;DHT22;13837;48.562;12.108;2022-11-20T01:18:33;3.70;99.90
26063;DHT22;13837;48.562;12.108;2022-11-20T01:21:07;3.80;99.90
26063;DHT22;13837;48.562;12.108;2022-11-20T01:23:35;3.80;99.90
26063;DHT22;13837;48.562;12.108;2022-11-20T01:26:02;3.90;99.90
26063;DHT22;13837;48.562;12.108;2022-11-20T01:28:28;3.90;99.90
26063;DHT22;13837;48.562;12.108;2022-11-20T01:30:54;3.90;99.90
26063;DHT22;13837;48.562;12.108;2022-11-20T01:33:20;3.80;99.90
26063;DHT22;13837;48.562;12.108;2022-11-20T01:35:45;3.70;99.90
26063;DHT22;13837;48.562;12.108;2022-11-20T01:38:11;3.70;99.90
26063;DHT22;13837;48.562;12.108;2022-11-20T01:40:37;3.80;99.90
26063;DHT22;13837;48.562;12.108;2022-11-20T01:43:14;3.80;99.90
26063;DHT22;13837;48.562;12.108;2022-11-20T01:46:02;4.00;99.90
26063;DHT22;13837;48.562;12.108;2022-11-20T01:51:33;4.00;99.90
26063;DHT22;13837;48.562;12.108;2022-11-20T01:54:02;4.10;99.90
26063;DHT22;13837;48.562;12.108;2022-11-20T01:56:30;4.10;99.90
26063;DHT22;13837;48.562;12.108;2022-11-20T01:58:58;4.10;99.90
26063;DHT22;13837;48.562;12.108;2022-11-20T02:01:26;4.10;99.90
26063;DHT22;13837;48.562;12.108;2022-11-20T02:03:52;4.10;99.90
26063;DHT22;13837;48.562;12.108;2022-11-20T02:06:32;4.10;99.90
26063;DHT22;13837;48.562;12.108;2022-11-20T02:09:00;4.10;99.90
26063;DHT22;13837;48.562;12.108;2022-11-20T02:11:26;4.10;99.90
26063;DHT22;13837;48.562;12.108;2022-11-20T02:13:51;4.10;99.90
26063;DHT22;13837;48.562;12.108;2022-11-20T02:16:23;4.10;99.90
26063;DHT22;13837;48.562;12.108;2022-11-20T02:18:51;4.00;99.90
26063;DHT22;13837;48.562;12.108;2022-11-20T02:24:12;4.10;99.90
26063;DHT22;13837;48.562;12.108;2022-11-20T02:26:54;4.10;99.90
26063;DHT22;13837;48.562;12.108;2022-11-20T02:29:28;4.10;99.90
26063;DHT22;13837;48.562;12.108;2022-11-20T02:31:56;4.10;99.90
26063;DHT22;13837;48.562;12.108;2022-11-20T02:34:23;4.10;99.90
26063;DHT22;13837;48.562;12.108;2022-11-20T02:36:50;4.10;99.90
26063;DHT22;13837;48.562;12.108;2022-11-20T02:39:16;4.10;99.90
26063;DHT22;13837;48.562;12.108;2022-11-20T02:41:42;4.10;99.90
26063;DHT22;13837;48.562;12.108;2022-11-20T02:44:08;4.10;99.90
26063;DHT22;13837;48.562;12.108;2022-11-20T02:46:34;4.00;99.90
26063;DHT22;13837;48.562;12.108;2022-11-20T02:49:01;4.00;99.90
26063;DHT22;13837;48.562;12.108;2022-11-20T02:51:28;4.00;99.90
26063;DHT22;13837;48.562;12.108;2022-11-20T02:53:53;4.00;99.90
26063;DHT22;13837;48.562;12.108;2022-11-20T02:56:20;4.00;99.90
26063;DHT22;13837;48.562;12.108;2022-11-20T02:58:45;4.00;99.90
26063;DHT22;13837;48.562;12.108;2022-11-20T03:01:11;4.10;99.90
26063;DHT22;13837;48.562;12.108;2022-11-20T03:03:37;4.00;99.90
26063;DHT22;13837;48.562;12.108;2022-11-20T03:06:03;4.10;99.90
26063;DHT22;13837;48.562;12.108;2022-11-20T03:08:29;4.10;99.90
26063;DHT22;13837;48.562;12.108;2022-11-20T03:10:55;4.20;99.90
26063;DHT22;13837;48.562;12.108;2022-11-20T03:13:20;4.30;99.90
26063;DHT22;13837;48.562;12.108;2022-11-20T03:15:46;4.40;99.90
26063;DHT22;13837;48.562;12.108;2022-11-20T03:18:12;4.40;99.90
26063;DHT22;13837;48.562;12.108;2022-11-20T03:20:39;4.40;99.90
26063;DHT22;13837;48.562;12.108;2022-11-20T03:23:05;4.30;99.90
26063;DHT22;13837;48.562;12.108;2022-11-20T03:25:31;4.40;99.90
26063;DHT22;13837;48.562;12.108;2022-11-20T03:27:56;4.30;99.90
26063;DHT22;13837;48.562;12.108;2022-11-20T03:30:22;4.30;99.90
26063;DHT22;13837;48.562;12.108;2022-11-20T03:32:48;4.30;99.90
26063;DHT22;13837;48.562;12.108;2022-11-20T03:35:14;4.30;99.90
26063;DHT22;13837;48.562;12.108;2022-11-20T03:37:39;4.30;99.90
26063;DHT22;13837;48.562;12.108;2022-11-20T03:40:06;4.40;99.90
26063;DHT22;13837;48.562;12.108;2022-11-20T03:42:31;4.50;99.90
26063;DHT22;13837;48.562;12.108;2022-11-20T03:45:14;4.50;99.90
26063;DHT22;13837;48.562;12.108;2022-11-20T03:47:40;4.50;99.90
26063;DHT22;13837;48.562;12.108;2022-11-20T03:50:06;4.50;99.90
26063;DHT22;13837;48.562;12.108;2022-11-20T03:52:32;4.50;99.90
26063;DHT22;13837;48.562;12.108;2022-11-20T03:54:58;4.60;99.90
26063;DHT22;13837;48.562;12.108;2022-11-20T03:57:23;4.50;99.90
26063;DHT22;13837;48.562;12.108;2022-11-20T03:59:49;4.50;99.90
26063;DHT22;13837;48.562;12.108;2022-11-20T04:02:15;4.50;99.90
26063;DHT22;13837;48.562;12.108;2022-11-20T04:04:40;4.50;99.90
26063;DHT22;13837;48.562;12.108;2022-11-20T04:07:06;4.50;99.90
26063;DHT22;13837;48.562;12.108;2022-11-20T04:09:32;4.50;99.90
26063;DHT22;13837;48.562;12.108;2022-11-20T04:11:57;4.60;99.90
26063;DHT22;13837;48.562;12.108;2022-11-20T04:14:23;4.60;99.90
26063;DHT22;13837;48.562;12.108;2022-11-20T04:16:49;4.70;99.90
26063;DHT22;13837;48.562;12.108;2022-11-20T04:19:16;4.80;99.90
26063;DHT22;13837;48.562;12.108;2022-11-20T04:21:43;4.80;99.90
26063;DHT22;13837;48.562;12.108;2022-11-20T04:24:09;4.80;99.90
26063;DHT22;13837;48.562;12.108;2022-11-20T04:26:36;4.80;99.90
26063;DHT22;13837;48.562;12.108;2022-11-20T04:29:02;4.80;99.90
26063;DHT22;13837;48.562;12.108;2022-11-20T04:31:30;4.90;99.90
26063;DHT22;13837;48.562;12.108;2022-11-20T04:34:00;4.90;99.90
26063;DHT22;13837;48.562;12.108;2022-11-20T04:36:27;4.90;99.90
26063;DHT22;13837;48.562;12.108;2022-11-20T04:38:58;4.90;99.90
26063;DHT22;13837;48.562;12.108;2022-11-20T04:41:26;4.90;99.90
26063;DHT22;13837;48.562;12.108;2022-11-20T04:43:57;4.90;99.90
26063;DHT22;13837;48.562;12.108;2022-11-20T04:46:26;4.90;99.90
26063;DHT22;13837;48.562;12.108;2022-11-20T04:48:53;4.90;99.90
26063;DHT22;13837;48.562;12.108;2022-11-20T04:51:18;4.90;99.90
26063;DHT22;13837;48.562;12.108;2022-11-20T04:53:44;4.90;99.90
26063;DHT22;13837;48.562;12.108;2022-11-20T04:56:11;4.90;99.90
26063;DHT22;13837;48.562;12.108;2022-11-20T04:58:38;4.90;99.90
26063;DHT22;13837;48.562;12.108;2022-11-20T05:01:06;4.90;99.90
26063;DHT22;13837;48.562;12.108;2022-11-20T05:03:32;4.90;99.90
26063;DHT22;13837;48.562;12.108;2022-11-20T05:06:05;4.90;99.90
26063;DHT22;13837;48.562;12.108;2022-11-20T05:08:32;4.90;99.90
26063;DHT22;13837;48.562;12.108;2022-11-20T05:11:06;4.80;99.90
26063;DHT22;13837;48.562;12.108;2022-11-20T05:13:32;4.90;99.90
26063;DHT22;13837;48.562;12.108;2022-11-20T05:16:12;4.80;99.90
26063;DHT22;13837;48.562;12.108;2022-11-20T05:18:39;4.90;99.90
26063;DHT22;13837;48.562;12.108;2022-11-20T05:21:06;4.80;99.90
26063;DHT22;13837;48.562;12.108;2022-11-20T05:23:32;4.80;99.90
26063;DHT22;13837;48.562;12.108;2022-11-20T05:25:59;4.80;99.90
26063;DHT22;13837;48.562;12.108;2022-11-20T05:28:26;4.70;99.90
26063;DHT22;13837;48.562;12.108;2022-11-20T05:30:53;4.80;99.90
26063;DHT22;13837;48.562;12.108;2022-11-20T05:33:19;4.80;99.90
26063;DHT22;13837;48.562;12.108;2022-11-20T05:35:44;4.80;99.90
26063;DHT22;13837;48.562;12.108;2022-11-20T05:38:10;4.80;99.90
26063;DHT22;13837;48.562;12.108;2022-11-20T05:40:36;4.80;99.90
26063;DHT22;13837;48.562;12.108;2022-11-20T05:43:02;4.70;99.90
26063;DHT22;13837;48.562;12.108;2022-11-20T05:45:28;4.70;99.90
26063;DHT22;13837;48.562;12.108;2022-11-20T05:47:58;4.70;99.90
26063;DHT22;13837;48.562;12.108;2022-11-20T05:50:24;4.80;99.90
26063;DHT22;13837;48.562;12.108;2022-11-20T05:52:50;4.70;99.90
26063;DHT22;13837;48.562;12.108;2022-11-20T05:55:15;4.70;99.90
26063;DHT22;13837;48.562;12.108;2022-11-20T05:57:41;4.80;99.90
26063;DHT22;13837;48.562;12.108;2022-11-20T06:00:07;4.70;99.90
26063;DHT22;13837;48.562;12.108;2022-11-20T06:02:35;4.70;99.90
26063;DHT22;13837;48.562;12.108;2022-11-20T06:05:01;4.70;99.90
26063;DHT22;13837;48.562;12.108;2022-11-20T06:07:27;4.70;99.90
26063;DHT22;13837;48.562;12.108;2022-11-20T06:09:52;4.70;99.90
26063;DHT22;13837;48.562;12.108;2022-11-20T06:12:18;4.70;99.90
26063;DHT22;13837;48.562;12.108;2022-11-20T06:14:44;4.70;99.90
26063;DHT22;13837;48.562;12.108;2022-11-20T06:17:09;4.70;99.90
26063;DHT22;13837;48.562;12.108;2022-11-20T06:19:35;4.70;99.90
26063;DHT22;13837;48.562;12.108;2022-11-20T06:22:01;4.70;99.90
26063;DHT22;13837;48.562;12.108;2022-11-20T06:24:27;4.70;99.90
26063;DHT22;13837;48.562;12.108;2022-11-20T06:26:52;4.70;99.90
26063;DHT22;13837;48.562;12.108;2022-11-20T06:29:18;4.70;99.90
26063;DHT22;13837;48.562;12.108;2022-11-20T06:31:44;4.70;99.90
26063;DHT22;13837;48.562;12.108;2022-11-20T06:34:10;4.70;99.90
26063;DHT22;13837;48.562;12.108;2022-11-20T06:36:35;4.70;99.90
26063;DHT22;13837;48.562;12.108;2022-11-20T06:39:01;4.70;99.90
26063;DHT22;13837;48.562;12.108;2022-11-20T06:41:27;4.70;99.90
26063;DHT22;13837;48.562;12.108;2022-11-20T06:43:53;4.70;99.90
26063;DHT22;13837;48.562;12.108;2022-11-20T06:46:20;4.70;99.90
26063;DHT22;13837;48.562;12.108;2022-11-20T06:48:47;4.70;99.90
26063;DHT22;13837;48.562;12.108;2022-11-20T06:51:13;4.80;99.90
26063;DHT22;13837;48.562;12.108;2022-11-20T06:53:38;4.80;99.90
26063;DHT22;13837;48.562;12.108;2022-11-20T06:56:05;4.80;99.90
26063;DHT22;13837;48.562;12.108;2022-11-20T06:58:33;4.80;99.90
26063;DHT22;13837;48.562;12.108;2022-11-20T07:01:12;4.80;99.90
26063;DHT22;13837;48.562;12.108;2022-11-20T07:03:38;4.80;99.90
26063;DHT22;13837;48.562;12.108;2022-11-20T07:06:05;4.80;99.90
26063;DHT22;13837;48.562;12.108;2022-11-20T07:08:32;4.80;99.90
26063;DHT22;13837;48.562;12.108;2022-11-20T07:11:00;4.80;99.90
26063;DHT22;13837;48.562;12.108;2022-11-20T07:13:27;4.70;99.90
26063;DHT22;13837;48.562;12.108;2022-11-20T07:15:52;4.80;99.90
26063;DHT22;13837;48.562;12.108;2022-11-20T07:18:18;4.80;99.90
26063;DHT22;13837;48.562;12.108;2022-11-20T07:20:44;4.70;99.90
26063;DHT22;13837;48.562;12.108;2022-11-20T07:23:09;4.80;99.90
26063;DHT22;13837;48.562;12.108;2022-11-20T07:25:35;4.70;99.90
26063;DHT22;13837;48.562;12.108;2022-11-20T07:28:01;4.80;99.90
26063;DHT22;13837;48.562;12.108;2022-11-20T07:30:28;4.80;99.90
26063;DHT22;13837;48.562;12.108;2022-11-20T07:32:54;4.90;99.90
26063;DHT22;13837;48.562;12.108;2022-11-20T07:35:21;4.90;99.90
26063;DHT22;13837;48.562;12.108;2022-11-20T07:37:47;4.90;99.90
26063;DHT22;13837;48.562;12.108;2022-11-20T07:40:14;4.90;99.90
26063;DHT22;13837;48.562;12.108;2022-11-20T07:42:54;5.00;99.90
26063;DHT22;13837;48.562;12.108;2022-11-20T07:45:21;5.00;99.90
26063;DHT22;13837;48.562;12.108;2022-11-20T07:47:48;5.00;99.90
26063;DHT22;13837;48.562;12.108;2022-11-20T07:50:14;5.00;99.90
26063;DHT22;13837;48.562;12.108;2022-11-20T07:52:40;5.10;99.90
26063;DHT22;13837;48.562;12.108;2022-11-20T07:55:06;5.10;99.90
26063;DHT22;13837;48.562;12.108;2022-11-20T07:57:32;5.10;99.90
26063;DHT22;13837;48.562;12.108;2022-11-20T07:59:58;5.20;99.90
26063;DHT22;13837;48.562;12.108;2022-11-20T08:02:24;5.20;99.90
26063;DHT22;13837;48.562;12.108;2022-11-20T08:04:50;5.20;99.90
26063;DHT22;13837;48.562;12.108;2022-11-20T08:07:15;5.20;99.90
26063;DHT22;13837;48.562;12.108;2022-11-20T08:09:41;5.20;99.90
26063;DHT22;13837;48.562;12.108;2022-11-20T08:12:18;5.30;99.90
26063;DHT22;13837;48.562;12.108;2022-11-20T08:15:04;5.30;99.90
26063;DHT22;13837;48.562;12.108;2022-11-20T08:17:30;5.30;99.90
26063;DHT22;13837;48.562;12.108;2022-11-20T08:19:56;5.40;99.90
26063;DHT22;13837;48.562;12.108;2022-11-20T08:22:21;5.50;99.90
26063;DHT22;13837;48.562;12.108;2022-11-20T08:24:47;5.50;99.90
26063;DHT22;13837;48.562;12.108;2022-11-20T08:27:13;5.60;99.90
26063;DHT22;13837;48.562;12.108;2022-11-20T08:29:39;5.60;99.90
26063;DHT22;13837;48.562;12.108;2022-11-20T08:32:05;5.50;99.90
26063;DHT22;13837;48.562;12.108;2022-11-20T08:34:30;5.60;99.90
26063;DHT22;13837;48.562;12.108;2022-11-20T08:36:56;5.60;99.90
26063;DHT22;13837;48.562;12.108;2022-11-20T08:39:22;5.60;99.90
26063;DHT22;13837;48.562;12.108;2022-11-20T08:41:48;5.60;99.90
26063;DHT22;13837;48.562;12.108;2022-11-20T08:44:13;5.60;99.90
26063;DHT22;13837;48.562;12.108;2022-11-20T08:46:40;5.70;99.90
26063;DHT22;13837;48.562;12.108;2022-11-20T08:49:08;5.70;99.90
26063;DHT22;13837;48.562;12.108;2022-11-20T08:51:35;5.70;99.90
26063;DHT22;13837;48.562;12.108;2022-11-20T08:54:01;5.80;99.90
26063;DHT22;13837;48.562;12.108;2022-11-20T08:56:27;5.80;99.90
26063;DHT22;13837;48.562;12.108;2022-11-20T08:58:54;5.90;99.90
26063;DHT22;13837;48.562;12.108;2022-11-20T09:01:21;5.80;99.90
26063;DHT22;13837;48.562;12.108;2022-11-20T09:03:47;5.80;99.90
26063;DHT22;13837;48.562;12.108;2022-11-20T09:06:13;5.80;99.90
26063;DHT22;13837;48.562;12.108;2022-11-20T09:08:39;5.80;99.90
26063;DHT22;13837;48.562;12.108;2022-11-20T09:11:06;5.90;99.90
26063;DHT22;13837;48.562;12.108;2022-11-20T09:13:33;5.80;99.90
26063;DHT22;13837;48.562;12.108;2022-11-20T09:16:03;5.80;99.90
26063;DHT22;13837;48.562;12.108;2022-11-20T09:18:31;5.90;99.90
26063;DHT22;13837;48.562;12.108;2022-11-20T09:21:07;5.90;99.90
26063;DHT22;13837;48.562;12.108;2022-11-20T09:23:35;5.80;99.90
26063;DHT22;13837;48.562;12.108;2022-11-20T09:26:04;5.90;99.90
26063;DHT22;13837;48.562;12.108;2022-11-20T09:28:31;5.90;99.90
26063;DHT22;13837;48.562;12.108;2022-11-20T09:30:57;5.90;99.90
26063;DHT22;13837;48.562;12.108;2022-11-20T09:33:23;5.90;99.90
26063;DHT22;13837;48.562;12.108;2022-11-20T09:35:49;5.90;99.90
26063;DHT22;13837;48.562;12.108;2022-11-20T09:38:14;5.90;99.90
26063;DHT22;13837;48.562;12.108;2022-11-20T09:40:51;6.00;99.90
26063;DHT22;13837;48.562;12.108;2022-11-20T09:43:24;6.00;99.90
26063;DHT22;13837;48.562;12.108;2022-11-20T09:46:08;6.00;99.90
26063;DHT22;13837;48.562;12.108;2022-11-20T09:54:01;6.20;99.90
26063;DHT22;13837;48.562;12.108;2022-11-20T09:56:34;6.20;99.90
26063;DHT22;13837;48.562;12.108;2022-11-20T09:59:05;6.30;99.90
26063;DHT22;13837;48.562;12.108;2022-11-20T10:01:36;6.40;99.90
26063;DHT22;13837;48.562;12.108;2022-11-20T10:04:18;6.50;99.90
26063;DHT22;13837;48.562;12.108;2022-11-20T10:07:19;6.60;99.90
26063;DHT22;13837;48.562;12.108;2022-11-20T10:09:53;6.60;99.90
26063;DHT22;13837;48.562;12.108;2022-11-20T10:31:39;6.70;99.90
26063;DHT22;13837;48.562;12.108;2022-11-20T10:34:12;6.70;99.90
26063;DHT22;13837;48.562;12.108;2022-11-20T10:36:45;6.60;99.90
26063;DHT22;13837;48.562;12.108;2022-11-20T10:41:56;6.60;99.90
26063;DHT22;13837;48.562;12.108;2022-11-20T10:44:27;6.60;99.90
26063;DHT22;13837;48.562;12.108;2022-11-20T10:47:15;6.70;99.90
26063;DHT22;13837;48.562;12.108;2022-11-20T10:49:52;6.70;99.90
26063;DHT22;13837;48.562;12.108;2022-11-20T10:52:29;6.80;99.90
26063;DHT22;13837;48.562;12.108;2022-11-20T11:00:38;7.50;99.90
26063;DHT22;13837;48.562;12.108;2022-11-20T11:03:20;7.70;99.90
26063;DHT22;13837;48.562;12.108;2022-11-20T11:06:14;7.40;99.90
26063;DHT22;13837;48.562;12.108;2022-11-20T11:08:45;7.30;99.90
26063;DHT22;13837;48.562;12.108;2022-11-20T11:11:29;7.10;99.90
26063;DHT22;13837;48.562;12.108;2022-11-20T11:14:09;6.90;99.90
26063;DHT22;13837;48.562;12.108;2022-11-20T11:16:35;6.90;99.90
26063;DHT22;13837;48.562;12.108;2022-11-20T11:19:05;6.90;99.90
26063;DHT22;13837;48.562;12.108;2022-11-20T11:21:31;7.00;99.90
26063;DHT22;13837;48.562;12.108;2022-11-20T11:24:04;7.00;99.90
26063;DHT22;13837;48.562;12.108;2022-11-20T11:26:30;7.00;99.90
26063;DHT22;13837;48.562;12.108;2022-11-20T11:29:02;7.00;99.90
26063;DHT22;13837;48.562;12.108;2022-11-20T11:31:30;7.00;99.90
26063;DHT22;13837;48.562;12.108;2022-11-20T11:34:13;7.00;99.90
26063;DHT22;13837;48.562;12.108;2022-11-20T11:36:54;7.00;99.90
26063;DHT22;13837;48.562;12.108;2022-11-20T11:39:21;7.00;99.90
26063;DHT22;13837;48.562;12.108;2022-11-20T11:41:47;7.10;99.90
26063;DHT22;13837;48.562;12.108;2022-11-20T11:44:32;7.20;99.90
26063;DHT22;13837;48.562;12.108;2022-11-20T11:50:28;7.20;99.90
26063;DHT22;13837;48.562;12.108;2022-11-20T11:53:07;7.10;99.90
26063;DHT22;13837;48.562;12.108;2022-11-20T11:58:46;7.20;99.90
26063;DHT22;13837;48.562;12.108;2022-11-20T12:03:55;7.20;99.90
26063;DHT22;13837;48.562;12.108;2022-11-20T12:06:25;7.20;99.90
26063;DHT22;13837;48.562;12.108;2022-11-20T12:09:01;7.20;99.90
26063;DHT22;13837;48.562;12.108;2022-11-20T12:11:45;7.30;99.90
26063;DHT22;13837;48.562;12.108;2022-11-20T12:14:34;7.30;99.90
26063;DHT22;13837;48.562;12.108;2022-11-20T12:17:02;7.30;99.90
26063;DHT22;13837;48.562;12.108;2022-11-20T12:19:33;7.30;99.90
26063;DHT22;13837;48.562;12.108;2022-11-20T12:30:15;7.30;99.90
26063;DHT22;13837;48.562;12.108;2022-11-20T12:33:16;7.20;99.90
26063;DHT22;13837;48.562;12.108;2022-11-20T12:41:42;7.20;99.90
26063;DHT22;13837;48.562;12.108;2022-11-20T12:53:03;6.90;99.90
26063;DHT22;13837;48.562;12.108;2022-11-20T12:58:46;6.80;99.90
26063;DHT22;13837;48.562;12.108;2022-11-20T13:06:48;6.80;99.90
26063;DHT22;13837;48.562;12.108;2022-11-20T13:09:18;6.80;99.90
26063;DHT22;13837;48.562;12.108;2022-11-20T13:12:10;6.80;99.90
26063;DHT22;13837;48.562;12.108;2022-11-20T13:17:30;6.80;99.90
26063;DHT22;13837;48.562;12.108;2022-11-20T13:20:01;6.80;99.90
26063;DHT22;13837;48.562;12.108;2022-11-20T13:22:29;6.80;99.90
26063;DHT22;13837;48.562;12.108;2022-11-20T13:24:57;6.70;99.90
26063;DHT22;13837;48.562;12.108;2022-11-20T13:27:23;6.70;99.90
26063;DHT22;13837;48.562;12.108;2022-11-20T13:30:13;6.70;99.90
26063;DHT22;13837;48.562;12.108;2022-11-20T13:32:56;6.70;99.90
26063;DHT22;13837;48.562;12.108;2022-11-20T13:38:08;6.60;99.90
26063;DHT22;13837;48.562;12.108;2022-11-20T13:40:50;6.50;99.90
26063;DHT22;13837;48.562;12.108;2022-11-20T13:43:39;6.50;99.90
26063;DHT22;13837;48.562;12.108;2022-11-20T13:46:08;6.40;99.90
26063;DHT22;13837;48.562;12.108;2022-11-20T13:48:39;6.40;99.90
26063;DHT22;13837;48.562;12.108;2022-11-20T13:51:31;6.40;99.90
26063;DHT22;13837;48.562;12.108;2022-11-20T14:02:15;6.40;99.90
26063;DHT22;13837;48.562;12.108;2022-11-20T14:04:42;6.40;99.90
26063;DHT22;13837;48.562;12.108;2022-11-20T14:07:09;6.40;99.90
26063;DHT22;13837;48.562;12.108;2022-11-20T14:09:35;6.40;99.90
26063;DHT22;13837;48.562;12.108;2022-11-20T14:12:02;6.40;99.90
26063;DHT22;13837;48.562;12.108;2022-11-20T14:14:29;6.40;99.90
26063;DHT22;13837;48.562;12.108;2022-11-20T14:17:17;6.40;99.90
26063;DHT22;13837;48.562;12.108;2022-11-20T14:19:45;6.40;99.90
26063;DHT22;13837;48.562;12.108;2022-11-20T14:22:22;6.40;99.90
26063;DHT22;13837;48.562;12.108;2022-11-20T14:25:01;6.40;99.90
26063;DHT22;13837;48.562;12.108;2022-11-20T14:27:27;6.30;99.90
26063;DHT22;13837;48.562;12.108;2022-11-20T14:29:53;6.30;99.90
26063;DHT22;13837;48.562;12.108;2022-11-20T14:32:28;6.20;99.90
26063;DHT22;13837;48.562;12.108;2022-11-20T14:38:28;6.20;99.90
26063;DHT22;13837;48.562;12.108;2022-11-20T14:41:08;6.20;99.90
26063;DHT22;13837;48.562;12.108;2022-11-20T14:43:36;6.20;99.90
26063;DHT22;13837;48.562;12.108;2022-11-20T14:46:14;6.20;99.90
26063;DHT22;13837;48.562;12.108;2022-11-20T14:48:55;6.20;99.90
26063;DHT22;13837;48.562;12.108;2022-11-20T14:51:32;6.20;99.90
26063;DHT22;13837;48.562;12.108;2022-11-20T14:54:19;6.20;99.90
26063;DHT22;13837;48.562;12.108;2022-11-20T14:59:30;6.20;99.90
26063;DHT22;13837;48.562;12.108;2022-11-20T15:02:02;6.20;99.90
26063;DHT22;13837;48.562;12.108;2022-11-20T15:04:29;6.20;99.90
26063;DHT22;13837;48.562;12.108;2022-11-20T15:07:03;6.20;99.90
26063;DHT22;13837;48.562;12.108;2022-11-20T15:09:34;6.20;99.90
26063;DHT22;13837;48.562;12.108;2022-11-20T15:12:01;6.20;99.90
26063;DHT22;13837;48.562;12.108;2022-11-20T15:14:54;6.20;99.90
26063;DHT22;13837;48.562;12.108;2022-11-20T15:17:59;6.20;99.90
26063;DHT22;13837;48.562;12.108;2022-11-20T15:20:30;6.20;99.90
26063;DHT22;13837;48.562;12.108;2022-11-20T15:22:59;6.20;99.90
26063;DHT22;13837;48.562;12.108;2022-11-20T15:25:33;6.20;99.90
26063;DHT22;13837;48.562;12.108;2022-11-20T15:27:59;6.20;99.90
26063;DHT22;13837;48.562;12.108;2022-11-20T15:30:28;6.10;99.90
26063;DHT22;13837;48.562;12.108;2022-11-20T15:33:12;6.10;99.90
26063;DHT22;13837;48.562;12.108;2022-11-20T15:35:39;6.10;99.90
26063;DHT22;13837;48.562;12.108;2022-11-20T15:38:05;6.10;99.90
26063;DHT22;13837;48.562;12.108;2022-11-20T15:40:41;6.10;99.90
26063;DHT22;13837;48.562;12.108;2022-11-20T15:43:10;6.10;99.90
26063;DHT22;13837;48.562;12.108;2022-11-20T15:45:43;6.10;99.90
26063;DHT22;13837;48.562;12.108;2022-11-20T15:48:24;6.10;99.90
26063;DHT22;13837;48.562;12.108;2022-11-20T15:53:41;6.10;99.90
26063;DHT22;13837;48.562;12.108;2022-11-20T15:56:14;6.00;99.90
26063;DHT22;13837;48.562;12.108;2022-11-20T15:58:40;6.00;99.90
26063;DHT22;13837;48.562;12.108;2022-11-20T16:01:25;6.00;99.90
26063;DHT22;13837;48.562;12.108;2022-11-20T16:03:51;6.00;99.90
26063;DHT22;13837;48.562;12.108;2022-11-20T16:06:17;5.90;99.90
26063;DHT22;13837;48.562;12.108;2022-11-20T16:08:46;5.90;99.90
26063;DHT22;13837;48.562;12.108;2022-11-20T16:11:13;5.80;99.90
26063;DHT22;13837;48.562;12.108;2022-11-20T16:13:40;5.80;99.90
26063;DHT22;13837;48.562;12.108;2022-11-20T16:16:34;5.80;99.90
26063;DHT22;13837;48.562;12.108;2022-11-20T16:19:00;5.70;99.90
26063;DHT22;13837;48.562;12.108;2022-11-20T16:21:27;5.70;99.90
26063;DHT22;13837;48.562;12.108;2022-11-20T16:24:06;5.60;99.90
26063;DHT22;13837;48.562;12.108;2022-11-20T16:26:37;5.60;99.90
26063;DHT22;13837;48.562;12.108;2022-11-20T16:29:05;5.60;99.90
26063;DHT22;13837;48.562;12.108;2022-11-20T16:31:31;5.50;99.90
26063;DHT22;13837;48.562;12.108;2022-11-20T16:34:03;5.50;99.90
26063;DHT22;13837;48.562;12.108;2022-11-20T16:36:29;5.40;99.90
26063;DHT22;13837;48.562;12.108;2022-11-20T16:39:10;5.40;99.90
26063;DHT22;13837;48.562;12.108;2022-11-20T16:41:38;5.40;99.90
26063;DHT22;13837;48.562;12.108;2022-11-20T16:44:10;5.40;99.90
26063;DHT22;13837;48.562;12.108;2022-11-20T16:46:46;5.40;99.90
26063;DHT22;13837;48.562;12.108;2022-11-20T16:49:13;5.30;99.90
26063;DHT22;13837;48.562;12.108;2022-11-20T16:51:40;5.40;99.90
26063;DHT22;13837;48.562;12.108;2022-11-20T16:54:09;5.30;99.90
26063;DHT22;13837;48.562;12.108;2022-11-20T16:56:36;5.30;99.90
26063;DHT22;13837;48.562;12.108;2022-11-20T16:59:02;5.20;99.90
26063;DHT22;13837;48.562;12.108;2022-11-20T17:01:29;5.30;99.90
26063;DHT22;13837;48.562;12.108;2022-11-20T17:04:03;5.20;99.90
26063;DHT22;13837;48.562;12.108;2022-11-20T17:06:38;5.10;99.90
26063;DHT22;13837;48.562;12.108;2022-11-20T17:09:06;5.10;99.90
26063;DHT22;13837;48.562;12.108;2022-11-20T17:11:37;5.10;99.90
26063;DHT22;13837;48.562;12.108;2022-11-20T17:14:05;5.00;99.90
26063;DHT22;13837;48.562;12.108;2022-11-20T17:16:47;5.00;99.90
26063;DHT22;13837;48.562;12.108;2022-11-20T17:19:14;5.00;99.90
26063;DHT22;13837;48.562;12.108;2022-11-20T17:21:45;4.80;99.90
26063;DHT22;13837;48.562;12.108;2022-11-20T17:24:14;4.70;99.90
26063;DHT22;13837;48.562;12.108;2022-11-20T17:26:51;4.60;99.90
26063;DHT22;13837;48.562;12.108;2022-11-20T17:29:22;4.50;99.90